Time;durP1;ratioP1;P1;durP2;ratioP2;P2;SDS_P1;SDS_P2;PMS_P1;PMS_P2;Temp;Humidity;BMP_temperature;BMP_pressure;BME280_temperature;BME280_humidity;BME280_pressure;Samples;Min_cycle;Max_cycle;Signal;HPM_P1;HPM_P2
2022/07/29 00:01:42;;;;;;;7.20;4.45;;;26.60;74.80;;;;;;5040841;28;20218;-76
2022/07/29 00:04:10;;;;;;;7.85;4.57;;;26.60;75.30;;;;;;5035468;28;20203;-76
2022/07/29 00:06:39;;;;;;;8.55;5.05;;;26.60;75.10;;;;;;5041883;28;20184;-76
2022/07/29 00:09:08;;;;;;;8.10;4.55;;;26.50;75.10;;;;;;5037433;28;20191;-76
2022/07/29 00:11:36;;;;;;;6.45;4.50;;;26.60;75.10;;;;;;5043708;28;20195;-75
2022/07/29 00:14:05;;;;;;;7.90;4.82;;;26.50;75.10;;;;;;5040091;28;20206;-76
2022/07/29 00:16:35;;;;;;;5.90;3.95;;;26.50;75.30;;;;;;5046348;28;20192;-76
2022/07/29 00:19:04;;;;;;;6.47;4.47;;;26.50;75.30;;;;;;5041840;28;20187;-74
2022/07/29 00:21:35;;;;;;;7.47;4.65;;;26.50;75.30;;;;;;5033824;28;20554;-76
2022/07/29 00:24:06;;;;;;;8.77;4.75;;;26.50;75.30;;;;;;5036184;28;20199;-76
2022/07/29 00:26:34;;;;;;;7.32;4.43;;;26.40;75.40;;;;;;5037173;28;20230;-75
2022/07/29 00:29:05;;;;;;;6.70;4.47;;;26.50;75.40;;;;;;5035380;28;20183;-77
2022/07/29 00:31:55;;;;;;;10.60;5.47;;;26.40;75.60;;;;;;5053603;28;20258;-77
2022/07/29 00:37:10;;;;;;;8.52;4.90;;;26.40;75.60;;;;;;5051143;28;20187;-76
2022/07/29 00:39:38;;;;;;;9.65;4.95;;;26.40;75.70;;;;;;5053990;28;20223;-76
2022/07/29 00:42:07;;;;;;;6.63;4.53;;;26.40;75.70;;;;;;5050249;28;20195;-76
2022/07/29 00:44:38;;;;;;;8.13;5.10;;;26.40;76.30;;;;;;5052562;28;20195;-77
2022/07/29 00:47:09;;;;;;;5.53;4.32;;;26.30;76.10;;;;;;5052551;28;20179;-76
2022/07/29 00:49:40;;;;;;;7.40;4.72;;;26.30;76.10;;;;;;5051107;28;20199;-76
2022/07/29 00:52:10;;;;;;;9.80;4.88;;;26.30;76.20;;;;;;5045111;28;20633;-76
2022/07/29 00:54:40;;;;;;;8.43;5.10;;;26.30;76.30;;;;;;5045113;28;20271;-76
2022/07/29 00:57:12;;;;;;;8.18;5.10;;;26.30;76.60;;;;;;5038222;28;20222;-76
2022/07/29 00:59:41;;;;;;;8.23;5.35;;;26.20;76.60;;;;;;5044385;28;20250;-75
2022/07/29 01:02:11;;;;;;;9.02;5.22;;;26.20;76.80;;;;;;5043538;28;20191;-76
2022/07/29 01:04:41;;;;;;;8.48;5.35;;;26.20;76.70;;;;;;5044200;28;20726;-76
2022/07/29 01:07:09;;;;;;;6.65;4.68;;;26.20;76.90;;;;;;5043075;28;20194;-76
2022/07/29 01:09:38;;;;;;;8.02;4.55;;;26.10;77.00;;;;;;5042378;28;20198;-76
2022/07/29 01:12:17;;;;;;;7.00;4.85;;;26.10;77.20;;;;;;5040420;28;20629;-76
2022/07/29 01:14:47;;;;;;;8.73;5.00;;;26.10;77.20;;;;;;5039270;28;20191;-77
2022/07/29 01:17:25;;;;;;;8.77;4.88;;;26.10;77.30;;;;;;5035823;28;20605;-76
2022/07/29 01:20:01;;;;;;;9.15;5.30;;;26.10;77.30;;;;;;5035415;28;20183;-75
2022/07/29 01:22:38;;;;;;;8.13;5.20;;;26.10;77.40;;;;;;5041065;28;20604;-74
2022/07/29 01:25:24;;;;;;;12.18;6.32;;;26.10;77.60;;;;;;5031246;28;20954;-75
2022/07/29 01:28:09;;;;;;;7.38;5.05;;;26.00;77.80;;;;;;5034473;28;20645;-76
2022/07/29 01:30:43;;;;;;;8.60;5.32;;;26.10;77.90;;;;;;5035174;28;20919;-76
2022/07/29 01:33:48;;;;;;;8.00;5.18;;;26.00;77.80;;;;;;5037724;28;20184;-77
2022/07/29 01:36:11;;;;;;;8.35;4.88;;;26.00;77.80;;;;;;5037465;28;20849;-77
2022/07/29 01:38:40;;;;;;;7.60;4.78;;;26.00;77.80;;;;;;5039610;28;20218;-75
2022/07/29 01:41:13;;;;;;;8.15;4.95;;;26.00;78.10;;;;;;5038792;28;20195;-78
2022/07/29 01:43:49;;;;;;;8.00;4.68;;;26.00;78.10;;;;;;5038421;28;20195;-76
2022/07/29 01:46:25;;;;;;;6.97;4.50;;;26.10;78.20;;;;;;5034424;28;20191;-75
2022/07/29 01:48:57;;;;;;;8.38;4.90;;;26.10;78.60;;;;;;5038528;28;20187;-77
2022/07/29 01:51:31;;;;;;;7.88;5.70;;;26.00;79.10;;;;;;5039890;28;20230;-75
2022/07/29 01:54:06;;;;;;;7.18;5.28;;;26.00;79.10;;;;;;5050335;28;20187;-76
2022/07/29 01:56:36;;;;;;;6.53;4.50;;;25.90;79.70;;;;;;5037256;28;20195;-75
2022/07/29 01:59:07;;;;;;;6.97;5.07;;;25.90;79.70;;;;;;5038079;28;21457;-76
2022/07/29 02:01:41;;;;;;;8.93;4.55;;;25.90;79.70;;;;;;5038877;28;20405;-75
2022/07/29 02:04:11;;;;;;;8.85;5.03;;;25.90;79.50;;;;;;5045392;28;20190;-77
2022/07/29 02:07:00;;;;;;;7.40;5.13;;;25.90;79.30;;;;;;5038706;28;20764;-77
2022/07/29 02:09:30;;;;;;;7.38;5.43;;;25.90;79.10;;;;;;5049731;28;20187;-77
2022/07/29 02:12:02;;;;;;;8.00;5.00;;;25.90;79.10;;;;;;5041354;28;20573;-77
2022/07/29 02:14:37;;;;;;;7.00;4.97;;;25.90;79.10;;;;;;5032483;28;20590;-77
2022/07/29 02:17:08;;;;;;;8.57;5.55;;;26.00;79.30;;;;;;5042459;28;20182;-77
2022/07/29 02:19:39;;;;;;;7.95;5.05;;;25.90;79.10;;;;;;5042039;28;20214;-73
2022/07/29 02:22:09;;;;;;;8.88;5.03;;;26.00;79.00;;;;;;5031838;28;20194;-74
2022/07/29 02:24:39;;;;;;;8.13;5.47;;;26.00;79.10;;;;;;5034099;28;20218;-76
2022/07/29 02:27:09;;;;;;;7.47;4.95;;;26.00;79.20;;;;;;5039807;28;20646;-77
2022/07/29 02:29:40;;;;;;;8.90;5.65;;;26.00;79.40;;;;;;5048705;28;20213;-77
2022/07/29 02:32:12;;;;;;;8.88;5.20;;;26.00;79.20;;;;;;5042527;28;20301;-77
2022/07/29 02:34:42;;;;;;;7.75;4.93;;;26.00;79.40;;;;;;5056216;28;20187;-76
2022/07/29 02:37:12;;;;;;;8.50;5.03;;;26.00;79.10;;;;;;5047350;28;20194;-76
2022/07/29 02:39:44;;;;;;;8.68;4.75;;;26.00;79.20;;;;;;5064245;28;20215;-76
2022/07/29 02:42:16;;;;;;;7.53;4.90;;;26.10;79.10;;;;;;5061334;28;20617;-75
2022/07/29 02:44:45;;;;;;;8.63;4.85;;;26.10;78.90;;;;;;5058496;28;20186;-77
2022/07/29 02:47:21;;;;;;;9.23;5.35;;;26.10;78.80;;;;;;5056463;28;20194;-76
2022/07/29 02:49:56;;;;;;;7.95;5.07;;;26.10;78.70;;;;;;5044248;28;20182;-76
2022/07/29 02:52:28;;;;;;;8.98;4.97;;;26.10;78.60;;;;;;5055488;28;20214;-77
2022/07/29 02:55:01;;;;;;;5.95;4.50;;;26.10;78.40;;;;;;5054852;28;20195;-77
2022/07/29 02:57:34;;;;;;;7.53;4.95;;;26.20;78.30;;;;;;5057856;28;20183;-76
2022/07/29 03:00:24;;;;;;;9.57;5.25;;;26.10;78.10;;;;;;5040544;28;20465;-76
2022/07/29 03:02:57;;;;;;;8.65;5.05;;;26.20;78.10;;;;;;5038278;28;20241;-77
2022/07/29 03:05:27;;;;;;;6.32;4.78;;;26.20;78.00;;;;;;5054079;28;20420;-75
2022/07/29 03:07:58;;;;;;;6.40;4.95;;;26.20;77.90;;;;;;5053469;28;20198;-77
2022/07/29 03:10:28;;;;;;;8.35;5.30;;;26.20;77.80;;;;;;5041511;28;20198;-75
2022/07/29 03:12:57;;;;;;;7.10;4.30;;;26.20;77.70;;;;;;5051674;28;20224;-77
2022/07/29 03:15:27;;;;;;;6.70;4.88;;;26.20;77.60;;;;;;5052231;28;20195;-76
2022/07/29 03:17:57;;;;;;;7.20;5.10;;;26.20;77.60;;;;;;5046840;28;20202;-76
2022/07/29 03:20:27;;;;;;;9.80;5.25;;;26.20;77.50;;;;;;5050432;28;20183;-76
2022/07/29 03:22:55;;;;;;;7.25;4.90;;;26.30;77.50;;;;;;5052854;28;20213;-77
2022/07/29 03:25:24;;;;;;;7.05;4.40;;;26.20;77.30;;;;;;5058447;28;20197;-76
2022/07/29 03:27:52;;;;;;;7.40;4.95;;;26.30;77.40;;;;;;5049289;28;20191;-76
2022/07/29 03:30:20;;;;;;;7.55;4.90;;;26.30;77.40;;;;;;5049482;28;20518;-76
2022/07/29 03:32:50;;;;;;;10.13;4.97;;;26.30;77.30;;;;;;5041622;28;20779;-77
2022/07/29 03:35:21;;;;;;;6.55;4.53;;;26.40;77.30;;;;;;5044766;28;20183;-76
2022/07/29 03:37:50;;;;;;;8.18;4.90;;;26.40;77.30;;;;;;5042637;28;20234;-77
2022/07/29 03:40:23;;;;;;;7.03;4.65;;;26.40;77.30;;;;;;5047057;28;20229;-76
2022/07/29 03:42:56;;;;;;;7.53;4.35;;;26.40;77.20;;;;;;5046556;28;20182;-77
2022/07/29 03:45:26;;;;;;;9.05;5.63;;;26.40;77.10;;;;;;5047190;28;20195;-76
2022/07/29 03:47:59;;;;;;;9.82;5.00;;;26.40;77.20;;;;;;5047330;28;20201;-76
2022/07/29 03:50:30;;;;;;;9.95;5.60;;;26.40;77.20;;;;;;5047439;28;20241;-76
2022/07/29 03:52:59;;;;;;;11.32;4.70;;;26.40;77.00;;;;;;5043689;28;20207;-77
2022/07/29 03:55:31;;;;;;;8.55;5.25;;;26.40;77.00;;;;;;5045004;28;20195;-77
2022/07/29 03:58:02;;;;;;;7.25;5.03;;;26.40;76.90;;;;;;5043145;28;21679;-77
2022/07/29 04:00:33;;;;;;;8.95;4.63;;;26.40;76.90;;;;;;5044673;28;20467;-77
2022/07/29 04:03:02;;;;;;;6.45;4.22;;;26.40;76.90;;;;;;5036902;28;20184;-76
2022/07/29 04:05:32;;;;;;;7.78;5.20;;;26.50;76.90;;;;;;5039751;28;20207;-76
2022/07/29 04:08:01;;;;;;;10.77;4.82;;;26.50;77.10;;;;;;5042065;28;20183;-75
2022/07/29 04:10:29;;;;;;;7.97;4.60;;;26.40;76.90;;;;;;5045816;28;20218;-77
2022/07/29 04:12:59;;;;;;;6.28;4.47;;;26.50;77.10;;;;;;5035903;28;20220;-76
2022/07/29 04:15:28;;;;;;;10.18;4.53;;;26.50;77.10;;;;;;5042333;28;20910;-76
2022/07/29 04:17:59;;;;;;;7.93;4.10;;;26.50;77.10;;;;;;5043956;28;20605;-77
2022/07/29 04:20:28;;;;;;;12.73;5.28;;;26.50;77.10;;;;;;5042587;28;20692;-77
2022/07/29 04:22:57;;;;;;;8.60;5.25;;;26.60;77.10;;;;;;5046860;28;20194;-77
2022/07/29 04:25:26;;;;;;;7.53;4.90;;;26.60;77.20;;;;;;5037772;28;20214;-77
2022/07/29 04:28:04;;;;;;;8.55;4.70;;;26.60;77.20;;;;;;5035949;28;20203;-75
2022/07/29 04:30:33;;;;;;;8.02;4.75;;;26.60;77.20;;;;;;5035228;28;20194;-76
2022/07/29 04:33:02;;;;;;;8.68;5.38;;;26.60;77.20;;;;;;5045840;28;20668;-77
2022/07/29 04:35:31;;;;;;;7.10;4.82;;;26.60;77.10;;;;;;5047952;28;20294;-76
2022/07/29 04:38:07;;;;;;;9.10;4.80;;;26.60;76.90;;;;;;5046984;28;20281;-76
2022/07/29 04:40:44;;;;;;;7.25;4.90;;;26.60;77.00;;;;;;5041797;28;20278;-77
2022/07/29 04:43:15;;;;;;;7.53;4.90;;;26.60;76.90;;;;;;5045746;28;20286;-75
2022/07/29 04:45:49;;;;;;;9.13;4.78;;;26.60;77.00;;;;;;5037641;28;20201;-76
2022/07/29 04:48:18;;;;;;;8.98;4.40;;;26.70;77.00;;;;;;5044893;28;20230;-76
2022/07/29 04:50:50;;;;;;;7.35;4.30;;;26.70;77.00;;;;;;5051041;28;20199;-75
2022/07/29 04:53:19;;;;;;;8.18;4.93;;;26.70;77.00;;;;;;5041327;28;20230;-75
2022/07/29 04:55:48;;;;;;;7.97;4.88;;;26.80;77.10;;;;;;5045566;28;20699;-74
2022/07/29 04:58:16;;;;;;;7.78;4.65;;;26.80;77.00;;;;;;5047085;28;20203;-72
2022/07/29 05:00:45;;;;;;;5.95;4.28;;;26.80;76.90;;;;;;5042244;28;20191;-75
2022/07/29 05:03:13;;;;;;;8.75;5.13;;;26.90;76.90;;;;;;5038636;28;20286;-72
2022/07/29 05:05:42;;;;;;;10.20;5.15;;;26.90;76.80;;;;;;5040572;28;20282;-74
2022/07/29 05:08:10;;;;;;;7.63;4.90;;;26.90;76.60;;;;;;5046309;28;20191;-74
2022/07/29 05:10:40;;;;;;;8.10;5.13;;;27.00;76.70;;;;;;5045263;28;20195;-73
2022/07/29 05:13:08;;;;;;;8.55;4.15;;;27.00;76.60;;;;;;5043675;28;20222;-75
2022/07/29 05:15:37;;;;;;;6.32;3.97;;;27.00;76.50;;;;;;5047277;28;20715;-75
2022/07/29 05:18:06;;;;;;;6.38;3.90;;;27.10;76.50;;;;;;5050682;28;20191;-75
2022/07/29 05:20:35;;;;;;;10.48;5.13;;;27.10;76.40;;;;;;5044554;28;20236;-74
2022/07/29 05:23:03;;;;;;;5.95;4.18;;;27.10;76.20;;;;;;5039208;28;20290;-75
2022/07/29 05:25:32;;;;;;;7.30;4.35;;;27.20;76.00;;;;;;5045904;28;20217;-74
2022/07/29 05:28:13;;;;;;;7.45;4.38;;;27.20;75.80;;;;;;5047665;28;20253;-74
2022/07/29 05:30:44;;;;;;;6.60;3.80;;;27.30;75.70;;;;;;5043728;28;20191;-74
2022/07/29 05:33:12;;;;;;;10.00;4.60;;;27.30;75.20;;;;;;5042807;28;20209;-74
2022/07/29 05:36:01;;;;;;;6.75;4.25;;;27.30;75.20;;;;;;5055275;28;20199;-74
2022/07/29 05:38:30;;;;;;;5.03;3.50;;;27.40;75.20;;;;;;5038727;28;20194;-74
2022/07/29 05:40:59;;;;;;;5.63;3.92;;;27.40;75.00;;;;;;5050838;28;20224;-74
2022/07/29 05:43:30;;;;;;;8.80;4.40;;;27.50;75.00;;;;;;5045933;28;20191;-74
2022/07/29 05:45:58;;;;;;;5.68;3.90;;;27.50;74.80;;;;;;5049930;28;20225;-76
2022/07/29 05:48:27;;;;;;;6.05;3.40;;;27.60;74.60;;;;;;5050865;28;20715;-76
2022/07/29 05:50:56;;;;;;;8.73;4.22;;;27.60;74.40;;;;;;5050608;28;20194;-74
2022/07/29 05:53:24;;;;;;;10.77;4.00;;;27.70;74.30;;;;;;5050221;28;20218;-75
2022/07/29 05:55:53;;;;;;;6.65;3.97;;;27.70;74.30;;;;;;5042167;28;20195;-75
2022/07/29 05:58:22;;;;;;;5.88;4.03;;;27.80;74.20;;;;;;5009849;28;20207;-76
2022/07/29 06:00:52;;;;;;;5.82;3.80;;;27.90;74.10;;;;;;5050395;28;20738;-76
2022/07/29 06:03:20;;;;;;;6.50;3.85;;;27.90;73.80;;;;;;5045186;28;20190;-75
2022/07/29 06:05:49;;;;;;;8.60;4.07;;;28.10;73.80;;;;;;5053783;28;20191;-76
2022/07/29 06:08:18;;;;;;;5.28;3.28;;;28.10;72.70;;;;;;5042272;28;20190;-76
2022/07/29 06:10:46;;;;;;;6.57;3.55;;;28.10;72.20;;;;;;5042108;28;20192;-76
2022/07/29 06:13:18;;;;;;;7.20;3.22;;;28.10;71.90;;;;;;5052272;28;20219;-77
2022/07/29 06:15:46;;;;;;;5.90;3.83;;;28.20;72.00;;;;;;5044965;28;20191;-73
2022/07/29 06:18:20;;;;;;;5.32;3.75;;;28.20;72.00;;;;;;5051243;28;20187;-74
2022/07/29 06:20:49;;;;;;;6.32;3.72;;;28.30;71.80;;;;;;5054063;28;20600;-74
2022/07/29 06:23:17;;;;;;;6.28;3.92;;;28.40;71.70;;;;;;5045813;28;20196;-75
2022/07/29 06:25:46;;;;;;;7.20;3.47;;;28.40;71.20;;;;;;5045168;28;20191;-77
2022/07/29 06:28:19;;;;;;;8.75;4.05;;;28.50;71.10;;;;;;5029935;28;20201;-76
2022/07/29 06:30:47;;;;;;;7.30;3.92;;;28.60;71.00;;;;;;5060237;28;20199;-75
2022/07/29 06:33:20;;;;;;;10.63;3.88;;;28.60;70.60;;;;;;5059218;28;20215;-76
2022/07/29 06:35:49;;;;;;;8.93;4.00;;;28.70;70.70;;;;;;5054585;28;20199;-75
2022/07/29 06:38:22;;;;;;;9.48;3.60;;;28.80;70.60;;;;;;5045871;28;20547;-75
2022/07/29 06:41:00;;;;;;;5.80;3.60;;;28.80;70.50;;;;;;5047912;28;20188;-75
2022/07/29 06:43:35;;;;;;;9.70;3.90;;;28.80;70.20;;;;;;5063104;28;20214;-75
2022/07/29 06:46:19;;;;;;;7.30;3.72;;;28.90;70.30;;;;;;5060158;28;20195;-76
2022/07/29 06:48:50;;;;;;;5.60;4.05;;;28.90;70.10;;;;;;5040874;28;20198;-76
2022/07/29 06:51:20;;;;;;;7.78;3.90;;;29.00;69.90;;;;;;5059996;28;20190;-77
2022/07/29 06:53:51;;;;;;;8.45;3.63;;;29.10;69.80;;;;;;5058900;28;20218;-75
2022/07/29 06:56:30;;;;;;;5.80;3.38;;;29.10;69.20;;;;;;5041344;28;20629;-75
2022/07/29 06:58:58;;;;;;;8.18;3.17;;;29.20;68.80;;;;;;5042232;28;20617;-75
2022/07/29 07:01:28;;;;;;;11.52;5.05;;;29.30;68.40;;;;;;5061307;28;20289;-76
2022/07/29 07:03:58;;;;;;;7.78;3.53;;;29.40;68.30;;;;;;5054543;28;20195;-75
2022/07/29 07:06:27;;;;;;;11.70;4.32;;;29.40;67.60;;;;;;5051314;28;20198;-75
2022/07/29 07:08:55;;;;;;;11.05;4.63;;;29.50;67.50;;;;;;5051360;28;20199;-74
2022/07/29 07:11:24;;;;;;;5.72;3.13;;;29.50;67.40;;;;;;5053152;28;20692;-76
2022/07/29 07:13:52;;;;;;;6.30;3.45;;;29.60;67.10;;;;;;5044054;28;20220;-77
2022/07/29 07:16:23;;;;;;;5.25;3.17;;;29.70;66.90;;;;;;5058127;28;20186;-76
2022/07/29 07:18:51;;;;;;;10.07;3.45;;;29.80;66.90;;;;;;5047797;28;20686;-77
2022/07/29 07:21:23;;;;;;;7.93;3.83;;;29.80;66.50;;;;;;5049374;28;20203;-75
2022/07/29 07:23:51;;;;;;;14.32;4.50;;;29.90;66.30;;;;;;5057574;28;20191;-77
2022/07/29 07:26:20;;;;;;;6.15;3.85;;;29.90;66.00;;;;;;5052077;28;20209;-76
2022/07/29 07:28:48;;;;;;;5.38;3.22;;;30.00;65.70;;;;;;5052605;28;20867;-76
2022/07/29 07:31:17;;;;;;;5.55;3.70;;;30.10;64.90;;;;;;5048532;28;20193;-73
2022/07/29 07:33:45;;;;;;;5.63;3.67;;;30.10;64.70;;;;;;5043529;28;20651;-75
2022/07/29 07:36:14;;;;;;;7.45;3.92;;;30.10;64.40;;;;;;5047919;28;20191;-76
2022/07/29 07:38:44;;;;;;;6.25;3.53;;;30.20;64.50;;;;;;5055374;28;20222;-76
2022/07/29 07:41:12;;;;;;;5.95;3.10;;;30.30;64.50;;;;;;5049741;28;20859;-75
2022/07/29 07:43:40;;;;;;;4.90;2.95;;;30.30;64.00;;;;;;5049666;28;20197;-76
2022/07/29 07:46:09;;;;;;;4.18;2.78;;;30.30;63.70;;;;;;5044244;28;20207;-76
2022/07/29 07:48:38;;;;;;;10.10;2.90;;;30.40;62.70;;;;;;5044180;28;20610;-76
2022/07/29 07:51:09;;;;;;;3.95;2.88;;;30.40;62.80;;;;;;5047861;28;20194;-77
2022/07/29 07:53:37;;;;;;;5.57;3.03;;;30.50;62.70;;;;;;5045601;28;20218;-77
2022/07/29 07:56:09;;;;;;;5.97;3.17;;;30.50;62.90;;;;;;5045751;28;20183;-76
2022/07/29 07:58:40;;;;;;;3.88;2.90;;;30.50;62.70;;;;;;5044598;28;20604;-77
2022/07/29 08:01:08;;;;;;;4.43;2.80;;;30.60;62.40;;;;;;5057037;28;20195;-76
2022/07/29 08:03:37;;;;;;;6.15;2.53;;;30.60;61.90;;;;;;5052667;28;20194;-75
2022/07/29 08:06:06;;;;;;;7.88;3.20;;;30.60;61.80;;;;;;5043414;28;20849;-75
2022/07/29 08:08:34;;;;;;;5.47;3.03;;;30.60;61.80;;;;;;5055900;28;20206;-75
2022/07/29 08:11:03;;;;;;;4.95;2.88;;;30.70;61.30;;;;;;5052553;28;20199;-75
2022/07/29 08:13:39;;;;;;;6.18;2.88;;;30.70;61.40;;;;;;5050781;28;20195;-76
2022/07/29 08:16:14;;;;;;;3.55;2.40;;;30.70;61.30;;;;;;5056852;28;20202;-75
2022/07/29 08:18:45;;;;;;;6.93;2.50;;;30.70;60.80;;;;;;5058859;28;20208;-75
2022/07/29 08:21:14;;;;;;;4.35;2.33;;;30.80;60.40;;;;;;5056375;28;20202;-76
2022/07/29 08:23:49;;;;;;;4.05;2.40;;;30.70;59.90;;;;;;5055454;28;20210;-75
2022/07/29 08:26:27;;;;;;;4.43;2.90;;;30.80;59.70;;;;;;5058530;28;20183;-76
2022/07/29 08:28:57;;;;;;;6.93;2.60;;;30.80;59.80;;;;;;5054426;28;20195;-76
2022/07/29 08:31:26;;;;;;;3.08;2.30;;;30.90;59.90;;;;;;5047057;28;20191;-75
2022/07/29 08:33:55;;;;;;;3.30;2.33;;;30.90;59.60;;;;;;5051860;28;20553;-74
2022/07/29 08:36:26;;;;;;;5.53;2.72;;;31.00;59.00;;;;;;5050961;28;20192;-75
2022/07/29 08:38:54;;;;;;;5.45;2.35;;;31.20;59.00;;;;;;5048571;28;20242;-75
2022/07/29 08:41:23;;;;;;;6.85;2.55;;;31.20;58.50;;;;;;5047770;28;20191;-73
2022/07/29 08:43:52;;;;;;;2.97;2.40;;;31.30;58.80;;;;;;5040984;28;22240;-75
2022/07/29 08:46:22;;;;;;;5.68;3.08;;;31.30;58.20;;;;;;5057397;28;20209;-73
2022/07/29 08:48:51;;;;;;;11.07;2.70;;;31.30;58.00;;;;;;5045665;28;20200;-73
2022/07/29 08:51:22;;;;;;;5.10;3.20;;;31.40;58.30;;;;;;5049538;28;20195;-75
2022/07/29 08:53:51;;;;;;;8.45;2.95;;;31.40;57.50;;;;;;5050108;28;20336;-73
2022/07/29 08:56:21;;;;;;;5.20;2.97;;;31.40;57.90;;;;;;5054668;28;20203;-73
2022/07/29 08:58:50;;;;;;;4.40;2.17;;;31.50;58.10;;;;;;5046588;28;20202;-73
2022/07/29 09:01:25;;;;;;;4.38;2.90;;;31.50;58.00;;;;;;5048429;28;20191;-73
2022/07/29 09:04:10;;;;;;;3.13;2.33;;;31.50;57.70;;;;;;5045759;28;20271;-73
2022/07/29 09:06:44;;;;;;;3.72;2.25;;;31.50;56.90;;;;;;5056004;28;20201;-75
2022/07/29 09:09:14;;;;;;;3.63;2.28;;;31.60;57.00;;;;;;5053924;28;20187;-75
2022/07/29 09:11:43;;;;;;;10.43;2.80;;;31.60;56.60;;;;;;5044251;28;20195;-76
2022/07/29 09:14:14;;;;;;;4.10;2.70;;;31.70;56.60;;;;;;5046988;28;20199;-75
2022/07/29 09:16:55;;;;;;;6.15;2.55;;;31.80;56.80;;;;;;5051863;28;20187;-76
2022/07/29 09:19:27;;;;;;;10.68;2.60;;;31.80;56.80;;;;;;5034767;28;20274;-76
2022/07/29 09:22:01;;;;;;;5.20;2.60;;;31.80;56.70;;;;;;5047591;28;20194;-75
2022/07/29 09:24:46;;;;;;;3.85;2.42;;;31.90;56.30;;;;;;5051152;28;20664;-76
2022/07/29 09:27:22;;;;;;;3.60;2.28;;;31.90;56.30;;;;;;5045172;28;20666;-75
2022/07/29 09:30:00;;;;;;;5.70;2.45;;;32.00;54.40;;;;;;5034826;28;20188;-75
2022/07/29 09:32:31;;;;;;;4.30;2.50;;;32.00;54.50;;;;;;5043570;28;20191;-75
2022/07/29 09:35:16;;;;;;;4.28;2.42;;;32.10;54.40;;;;;;5052972;28;20202;-75
2022/07/29 09:37:50;;;;;;;4.05;1.98;;;32.10;54.40;;;;;;5038506;28;20191;-75
2022/07/29 09:40:20;;;;;;;6.03;2.45;;;32.20;54.20;;;;;;5030995;28;20222;-75
2022/07/29 09:42:49;;;;;;;5.95;2.47;;;32.20;53.30;;;;;;5034353;28;20645;-76
2022/07/29 09:45:29;;;;;;;7.57;2.20;;;32.20;53.20;;;;;;5039899;28;20652;-76
2022/07/29 09:48:02;;;;;;;4.93;2.72;;;32.30;53.00;;;;;;5044150;28;20195;-76
2022/07/29 09:50:38;;;;;;;5.97;2.50;;;32.40;53.40;;;;;;5037950;28;20202;-76
2022/07/29 09:53:09;;;;;;;3.35;1.95;;;32.40;53.10;;;;;;5041926;28;20196;-75
2022/07/29 09:55:51;;;;;;;3.60;2.33;;;32.50;53.20;;;;;;5040171;28;20329;-75
2022/07/29 09:58:22;;;;;;;5.03;2.28;;;32.50;52.90;;;;;;5045879;28;20190;-76
2022/07/29 10:00:55;;;;;;;4.10;2.30;;;32.60;53.00;;;;;;5048587;28;20187;-75
2022/07/29 10:03:26;;;;;;;5.80;2.10;;;32.70;52.70;;;;;;5044263;28;20245;-76
2022/07/29 10:06:13;;;;;;;6.50;2.35;;;32.70;52.60;;;;;;5038037;28;20692;-76
2022/07/29 10:08:45;;;;;;;5.97;2.50;;;32.80;52.60;;;;;;5044729;28;20656;-76
2022/07/29 10:11:16;;;;;;;5.85;2.40;;;32.80;52.40;;;;;;5043417;28;20195;-76
2022/07/29 10:13:47;;;;;;;3.05;2.20;;;32.90;52.30;;;;;;5041355;28;20291;-75
2022/07/29 10:16:21;;;;;;;5.38;2.63;;;32.90;51.90;;;;;;5043032;28;20218;-75
2022/07/29 10:18:51;;;;;;;4.95;2.20;;;32.90;51.70;;;;;;5035653;28;20702;-77
2022/07/29 10:21:20;;;;;;;5.78;2.80;;;33.00;52.10;;;;;;5058867;28;20183;-76
2022/07/29 10:24:05;;;;;;;5.63;2.83;;;33.00;52.10;;;;;;5043897;28;20607;-76
2022/07/29 10:26:43;;;;;;;4.97;2.60;;;33.10;51.80;;;;;;5040524;28;20321;-76
2022/07/29 10:29:12;;;;;;;3.38;2.30;;;33.10;51.90;;;;;;5047164;28;20932;-76
2022/07/29 10:31:50;;;;;;;3.53;2.15;;;33.20;51.70;;;;;;5043386;28;20201;-77
2022/07/29 10:34:30;;;;;;;4.80;2.53;;;33.30;51.30;;;;;;5041018;28;20190;-76
2022/07/29 10:37:18;;;;;;;4.72;2.38;;;33.30;50.80;;;;;;5032265;28;20198;-76
2022/07/29 10:39:56;;;;;;;4.65;2.55;;;33.30;50.90;;;;;;5052134;28;20860;-75
2022/07/29 10:42:28;;;;;;;4.15;2.42;;;33.40;50.80;;;;;;5049511;28;20220;-75
2022/07/29 10:45:04;;;;;;;5.32;2.30;;;33.40;50.70;;;;;;5046066;28;20202;-76
2022/07/29 10:47:33;;;;;;;6.45;2.40;;;33.50;50.00;;;;;;5030646;28;20215;-75
2022/07/29 10:50:05;;;;;;;2.85;2.20;;;33.60;50.10;;;;;;5026812;28;20893;-76
2022/07/29 10:52:54;;;;;;;3.25;2.20;;;33.60;49.90;;;;;;5047039;28;20745;-76
2022/07/29 10:55:38;;;;;;;3.03;2.28;;;33.60;50.20;;;;;;5045642;28;20211;-76
2022/07/29 10:58:15;;;;;;;3.45;2.40;;;33.70;49.70;;;;;;5044218;28;20331;-76
2022/07/29 11:00:46;;;;;;;7.28;2.38;;;33.80;50.00;;;;;;5038866;28;20661;-76
2022/07/29 11:03:46;;;;;;;4.60;2.42;;;33.80;50.50;;;;;;5044317;28;20285;-76
2022/07/29 11:06:19;;;;;;;4.15;2.15;;;33.90;49.90;;;;;;5044107;28;20191;-76
2022/07/29 11:09:19;;;;;;;4.93;2.25;;;33.90;49.70;;;;;;5044530;28;20186;-77
2022/07/29 11:12:02;;;;;;;3.67;2.42;;;34.00;49.30;;;;;;5029019;28;20221;-76
2022/07/29 11:15:02;;;;;;;6.30;2.53;;;34.00;49.30;;;;;;5043482;28;20290;-77
2022/07/29 11:17:30;;;;;;;3.65;2.63;;;34.10;49.20;;;;;;5039913;28;20198;-76
2022/07/29 11:20:40;;;;;;;4.97;2.30;;;34.20;49.20;;;;;;5032494;28;20195;-77
2022/07/29 11:23:26;;;;;;;3.58;2.40;;;34.30;49.30;;;;;;5048304;28;20640;-76
2022/07/29 11:26:23;;;;;;;5.50;2.67;;;34.30;49.00;;;;;;5046613;28;20856;-76
2022/07/29 11:28:57;;;;;;;3.90;2.50;;;34.40;49.40;;;;;;5032492;28;20205;-78
2022/07/29 11:31:37;;;;;;;8.70;2.30;;;34.40;48.60;;;;;;5039739;28;20218;-77
2022/07/29 11:34:20;;;;;;;4.60;2.50;;;34.50;48.40;;;;;;5034344;28;20195;-76
2022/07/29 11:37:15;;;;;;;3.30;2.13;;;34.50;47.90;;;;;;5038787;28;20798;-77
2022/07/29 11:40:15;;;;;;;5.45;2.53;;;34.60;48.50;;;;;;5050120;28;20241;-76
2022/07/29 11:42:49;;;;;;;5.93;2.42;;;34.60;48.40;;;;;;5038678;28;20543;-76
2022/07/29 11:45:27;;;;;;;5.75;2.15;;;34.60;47.90;;;;;;5041855;28;20206;-77
2022/07/29 11:48:17;;;;;;;4.43;2.20;;;34.70;47.50;;;;;;5039825;28;20202;-77
2022/07/29 11:50:58;;;;;;;8.40;2.38;;;34.70;46.90;;;;;;5035867;28;20230;-76
2022/07/29 11:53:49;;;;;;;4.47;2.28;;;34.70;47.10;;;;;;5035308;28;20207;-77
2022/07/29 11:56:22;;;;;;;3.90;2.45;;;34.70;47.10;;;;;;5037692;28;20207;-78
2022/07/29 11:59:04;;;;;;;3.13;1.90;;;34.80;46.60;;;;;;5037753;28;20756;-76
2022/07/29 12:01:35;;;;;;;4.40;2.20;;;34.80;46.90;;;;;;5043486;28;20741;-77
2022/07/29 12:04:05;;;;;;;5.20;2.30;;;34.90;47.20;;;;;;5030473;28;20206;-78
2022/07/29 12:06:35;;;;;;;5.05;2.20;;;34.90;47.50;;;;;;5032254;28;20222;-77
2022/07/29 12:09:08;;;;;;;2.92;2.13;;;34.90;46.80;;;;;;5038368;28;20801;-78
2022/07/29 12:11:43;;;;;;;6.18;1.90;;;34.90;45.80;;;;;;5034319;28;20192;-77
2022/07/29 12:14:29;;;;;;;3.75;2.40;;;35.00;46.00;;;;;;5034309;28;20301;-77
2022/07/29 12:16:59;;;;;;;5.60;2.15;;;35.00;46.50;;;;;;5036126;28;20565;-77
2022/07/29 12:19:28;;;;;;;3.25;2.45;;;35.10;46.70;;;;;;5035191;28;20187;-76
2022/07/29 12:21:59;;;;;;;6.70;2.45;;;35.10;46.00;;;;;;5034126;28;20231;-76
2022/07/29 12:24:44;;;;;;;5.03;2.28;;;35.10;46.10;;;;;;5037761;28;20252;-77
2022/07/29 12:27:18;;;;;;;6.18;2.42;;;35.10;46.20;;;;;;5041581;28;20197;-76
2022/07/29 12:29:57;;;;;;;5.10;2.38;;;35.20;46.50;;;;;;5036471;28;20843;-77
2022/07/29 12:32:32;;;;;;;3.17;2.33;;;35.20;46.90;;;;;;5042846;28;20198;-77
2022/07/29 12:35:04;;;;;;;4.75;2.58;;;35.30;46.90;;;;;;5057080;28;20179;-76
2022/07/29 12:37:35;;;;;;;5.20;2.30;;;35.30;46.80;;;;;;5041934;28;20633;-75
2022/07/29 12:40:11;;;;;;;4.10;2.10;;;35.30;46.50;;;;;;5042708;28;20218;-74
2022/07/29 12:42:41;;;;;;;4.72;2.35;;;35.30;46.60;;;;;;5042777;28;20745;-75
2022/07/29 12:45:10;;;;;;;3.92;2.30;;;35.30;46.60;;;;;;5048715;28;20298;-76
2022/07/29 12:47:52;;;;;;;3.00;2.10;;;35.40;46.60;;;;;;5041125;28;20207;-75
2022/07/29 12:50:21;;;;;;;3.03;2.30;;;35.40;46.30;;;;;;5055565;28;20191;-75
2022/07/29 12:52:53;;;;;;;5.72;2.17;;;35.40;46.50;;;;;;5041952;28;20229;-75
2022/07/29 12:55:40;;;;;;;6.78;2.60;;;35.40;46.30;;;;;;5046675;28;20195;-78
2022/07/29 12:58:10;;;;;;;4.95;2.58;;;35.50;46.60;;;;;;5034413;28;20325;-77
2022/07/29 13:00:38;;;;;;;5.13;2.20;;;35.50;45.20;;;;;;5040699;28;20200;-78
2022/07/29 13:03:07;;;;;;;3.58;1.98;;;35.50;45.20;;;;;;5046484;28;20278;-78
2022/07/29 13:05:44;;;;;;;3.10;2.00;;;35.60;45.50;;;;;;5046955;28;20213;-77
2022/07/29 13:08:19;;;;;;;2.70;2.10;;;35.60;45.40;;;;;;5036112;28;20191;-76
2022/07/29 13:10:50;;;;;;;5.85;2.38;;;35.70;45.50;;;;;;5039222;28;20190;-78
2022/07/29 13:13:19;;;;;;;5.05;2.60;;;35.70;45.10;;;;;;5050285;28;20260;-77
2022/07/29 13:16:07;;;;;;;3.42;2.17;;;35.70;45.20;;;;;;5035010;28;20192;-78
2022/07/29 13:18:36;;;;;;;2.72;2.03;;;35.70;45.00;;;;;;5048277;28;20197;-77